Time;durP1;ratioP1;P1;durP2;ratioP2;P2;SDS_P1;SDS_P2;PMS_P1;PMS_P2;Temp;Humidity;BMP_temperature;BMP_pressure;BME280_temperature;BME280_humidity;BME280_pressure;Samples;Min_cycle;Max_cycle;Signal;HPM_P1;HPM_P2
2024/04/21 00:45:16;;;;;;;1.90;1.80;;;;;;;2.60;100.00;95835.22;7430804;19;20053;-55
2024/04/21 00:47:42;;;;;;;1.90;1.58;;;;;;;2.67;100.00;95829.94;7431249;19;20006;-66
2024/04/21 00:50:08;;;;;;;2.15;1.80;;;;;;;2.55;100.00;95825.81;7431050;19;20003;-56
2024/04/21 00:52:34;;;;;;;1.80;1.70;;;;;;;2.38;100.00;95824.41;7430796;19;20061;-54
2024/04/21 00:55:00;;;;;;;2.17;1.85;;;;;;;2.32;100.00;95822.75;7430854;19;19994;-59
2024/04/21 00:57:25;;;;;;;3.67;1.67;;;;;;;2.44;100.00;95833.78;7430882;19;20034;-63
2024/04/21 00:59:51;;;;;;;1.85;1.70;;;;;;;2.58;100.00;95829.22;7430739;19;20001;-59
2024/04/21 01:02:16;;;;;;;2.10;1.83;;;;;;;2.74;100.00;95826.38;7431134;19;20027;-64
2024/04/21 01:04:43;;;;;;;1.70;1.60;;;;;;;2.77;100.00;95826.31;7430540;19;19999;-58
2024/04/21 01:07:09;;;;;;;1.63;1.52;;;;;;;2.75;100.00;95823.75;7430438;19;20085;-60
2024/04/21 01:09:35;;;;;;;4.72;1.75;;;;;;;2.92;100.00;95832.91;7430513;19;19995;-60
2024/04/21 01:12:00;;;;;;;3.53;2.05;;;;;;;2.76;100.00;95829.75;7430339;19;20002;-63
2024/04/21 01:14:26;;;;;;;1.70;1.60;;;;;;;2.78;100.00;95828.00;7427833;19;20054;-57
2024/04/21 01:16:51;;;;;;;1.85;1.70;;;;;;;2.67;100.00;95823.03;7430224;19;20012;-58
2024/04/21 01:19:21;;;;;;;2.00;1.80;;;;;;;2.70;100.00;95825.56;7430089;19;20015;-59
2024/04/21 01:21:47;;;;;;;1.50;1.40;;;;;;;2.50;100.00;95825.94;7430476;19;20005;-59
2024/04/21 01:24:12;;;;;;;2.20;1.77;;;;;;;2.61;100.00;95830.88;7429997;19;20015;-65
2024/04/21 01:26:38;;;;;;;2.17;1.98;;;;;;;2.58;100.00;95829.22;7429885;19;20006;-63
2024/04/21 01:29:03;;;;;;;2.47;1.90;;;;;;;2.66;100.00;95834.25;7429740;19;19998;-52
2024/04/21 01:31:29;;;;;;;1.80;1.70;;;;;;;2.76;100.00;95833.22;7430171;19;20018;-60
2024/04/21 01:33:55;;;;;;;1.92;1.83;;;;;;;2.78;100.00;95836.63;7427897;19;20447;-62
2024/04/21 01:36:20;;;;;;;3.67;1.95;;;;;;;2.72;100.00;95844.47;7429943;19;20048;-56
2024/04/21 01:38:46;;;;;;;2.30;2.10;;;;;;;2.88;100.00;95851.94;7429480;19;20373;-65
2024/04/21 01:41:11;;;;;;;2.05;1.85;;;;;;;2.93;100.00;95850.13;7429812;19;20057;-62
2024/04/21 01:43:37;;;;;;;3.47;2.10;;;;;;;2.69;100.00;95852.28;7428398;19;20011;-61
2024/04/21 01:46:03;;;;;;;2.20;2.00;;;;;;;2.81;100.00;95856.38;7403076;19;20003;-58
2024/04/21 01:48:28;;;;;;;3.35;2.15;;;;;;;2.87;100.00;95864.03;7400477;19;20086;-63
2024/04/21 01:50:54;;;;;;;2.55;2.10;;;;;;;2.88;100.00;95857.97;7400459;19;19998;-58
2024/04/21 01:53:19;;;;;;;2.05;1.85;;;;;;;2.94;100.00;95858.72;7399409;19;19998;-63
2024/04/21 01:55:45;;;;;;;2.30;2.10;;;;;;;2.88;100.00;95855.38;7400189;19;20005;-60
2024/04/21 01:58:10;;;;;;;2.28;2.08;;;;;;;2.92;100.00;95843.25;7400743;19;20005;-60
2024/04/21 02:00:36;;;;;;;2.28;1.88;;;;;;;2.95;100.00;95840.59;7400149;19;20343;-63
2024/04/21 02:03:02;;;;;;;2.83;1.98;;;;;;;2.84;100.00;95842.53;7400043;19;19995;-58
2024/04/21 02:05:27;;;;;;;2.20;2.00;;;;;;;2.86;100.00;95839.03;7400077;19;20085;-56
2024/04/21 02:07:53;;;;;;;1.90;1.80;;;;;;;3.06;100.00;95839.53;7400269;19;19999;-63
2024/04/21 02:10:19;;;;;;;2.28;2.08;;;;;;;2.96;100.00;95844.91;7399861;19;20518;-59
2024/04/21 02:12:44;;;;;;;2.05;1.85;;;;;;;3.06;100.00;95850.75;7399722;19;20002;-58
2024/04/21 02:15:10;;;;;;;3.17;1.90;;;;;;;3.05;100.00;95854.22;7399743;19;20375;-62
2024/04/21 02:17:35;;;;;;;1.88;1.77;;;;;;;3.20;100.00;95859.97;7399531;19;20003;-60
2024/04/21 02:20:01;;;;;;;2.08;1.88;;;;;;;3.07;100.00;95854.19;7399467;19;20001;-59
2024/04/21 02:22:26;;;;;;;3.53;2.38;;;;;;;3.12;100.00;95860.09;7399455;19;19994;-61
2024/04/21 02:24:52;;;;;;;1.70;1.60;;;;;;;3.13;100.00;95854.91;7399439;19;20011;-58
2024/04/21 02:27:17;;;;;;;2.17;2.08;;;;;;;3.03;100.00;95843.03;7399324;19;20184;-65
2024/04/21 02:29:43;;;;;;;2.42;2.15;;;;;;;3.00;100.00;95845.69;7399300;19;19994;-58
2024/04/21 02:32:08;;;;;;;5.05;2.08;;;;;;;2.92;100.00;95847.56;7399491;19;20002;-54
2024/04/21 02:34:34;;;;;;;4.07;1.83;;;;;;;2.94;100.00;95840.63;7397081;19;20003;-60
2024/04/21 02:36:59;;;;;;;2.13;2.03;;;;;;;2.87;100.00;95842.50;7398854;19;20017;-61
2024/04/21 02:39:25;;;;;;;2.15;1.90;;;;;;;2.95;100.00;95835.44;7398888;19;19999;-57
2024/04/21 02:41:50;;;;;;;2.20;2.00;;;;;;;2.70;100.00;95846.22;7398808;19;20010;-62
2024/04/21 02:44:16;;;;;;;3.45;1.73;;;;;;;2.75;100.00;95844.44;7397152;19;20006;-69
2024/04/21 02:46:43;;;;;;;1.70;1.60;;;;;;;2.68;100.00;95840.22;7398595;19;20007;-63
2024/04/21 02:49:08;;;;;;;2.20;1.83;;;;;;;2.71;100.00;95837.59;7398485;19;20014;-61
2024/04/21 02:51:34;;;;;;;4.07;2.13;;;;;;;2.49;100.00;95835.41;7398863;19;20003;-55
2024/04/21 02:53:59;;;;;;;1.63;1.52;;;;;;;2.50;100.00;95836.25;7397408;19;20359;-64
2024/04/21 02:56:25;;;;;;;1.70;1.60;;;;;;;2.48;100.00;95831.13;7396371;19;20360;-65
2024/04/21 02:58:51;;;;;;;2.00;1.90;;;;;;;2.34;100.00;95840.81;7396609;19;20070;-62
2024/04/21 03:01:16;;;;;;;1.92;1.83;;;;;;;2.35;100.00;95839.94;7398270;19;20010;-67
2024/04/21 03:03:46;;;;;;;3.58;2.03;;;;;;;2.17;100.00;95830.78;7398002;19;20022;-62
2024/04/21 03:06:11;;;;;;;2.00;1.77;;;;;;;1.72;100.00;95838.28;7397885;19;20009;-65
2024/04/21 03:08:37;;;;;;;2.50;2.30;;;;;;;1.33;100.00;95833.69;7398203;19;20003;-61
2024/04/21 03:11:02;;;;;;;2.00;1.77;;;;;;;1.49;100.00;95836.91;7397830;19;20393;-64
2024/04/21 03:13:28;;;;;;;2.13;2.03;;;;;;;1.49;100.00;95842.06;7396763;19;20002;-65
2024/04/21 03:15:54;;;;;;;3.83;1.80;;;;;;;1.45;100.00;95837.81;7398013;19;20086;-65
2024/04/21 03:18:19;;;;;;;2.35;2.15;;;;;;;1.60;100.00;95852.22;7397646;19;20534;-63
2024/04/21 03:20:55;;;;;;;2.20;2.00;;;;;;;1.29;100.00;95837.13;7397428;19;20015;-61
2024/04/21 03:23:22;;;;;;;2.97;2.25;;;;;;;1.39;100.00;95833.56;7397880;19;20343;-59
2024/04/21 03:25:48;;;;;;;2.42;2.22;;;;;;;1.57;100.00;95838.53;7397389;19;20007;-61
2024/04/21 03:28:14;;;;;;;2.85;2.45;;;;;;;1.61;100.00;95841.03;7397171;19;19998;-59
2024/04/21 03:30:39;;;;;;;2.10;1.90;;;;;;;1.62;100.00;95841.88;7397081;19;20006;-59
2024/04/21 03:33:05;;;;;;;2.25;1.77;;;;;;;1.60;100.00;95844.47;7396511;19;19994;-62
2024/04/21 03:35:32;;;;;;;2.47;2.28;;;;;;;1.45;100.00;95847.28;7396938;19;20031;-61
2024/04/21 03:37:58;;;;;;;3.65;2.20;;;;;;;1.43;100.00;95849.88;7396779;19;20333;-65
2024/04/21 03:40:24;;;;;;;2.15;1.95;;;;;;;1.42;100.00;95848.16;7396681;19;20025;-58
2024/04/21 03:42:49;;;;;;;2.08;1.90;;;;;;;1.39;100.00;95846.47;7396822;19;20007;-61
2024/04/21 03:45:15;;;;;;;2.70;2.35;;;;;;;1.29;100.00;95852.59;7394923;19;20006;-61
2024/04/21 03:47:40;;;;;;;7.10;3.80;;;;;;;1.28;100.00;95850.03;7396643;19;20027;-58
2024/04/21 03:50:06;;;;;;;11.82;9.15;;;;;;;1.35;100.00;95843.94;7396852;19;19998;-63
2024/04/21 03:52:32;;;;;;;3.55;2.90;;;;;;;1.27;100.00;95856.94;7396627;19;20482;-65
2024/04/21 03:54:58;;;;;;;2.67;2.47;;;;;;;1.48;100.00;95860.13;7396281;19;20521;-61
2024/04/21 03:57:27;;;;;;;3.33;2.70;;;;;;;1.39;100.00;95859.34;7396777;19;20085;-63
2024/04/21 03:59:53;;;;;;;2.25;2.05;;;;;;;1.05;100.00;95858.91;7396282;19;20010;-65
2024/04/21 04:02:18;;;;;;;3.58;2.53;;;;;;;1.35;100.00;95859.41;7396076;19;20007;-64
2024/04/21 04:04:44;;;;;;;5.40;2.45;;;;;;;1.67;100.00;95849.56;7396073;19;20010;-57
2024/04/21 04:07:09;;;;;;;5.03;2.65;;;;;;;1.84;100.00;95860.47;7396170;19;20022;-61
2024/04/21 04:09:35;;;;;;;3.65;2.40;;;;;;;1.74;100.00;95871.78;7395385;19;20464;-59
2024/04/21 04:12:01;;;;;;;2.47;2.28;;;;;;;2.05;100.00;95866.22;7395756;19;20007;-68
2024/04/21 04:14:26;;;;;;;3.28;3.00;;;;;;;2.40;100.00;95876.84;7394449;19;20370;-60
2024/04/21 04:16:52;;;;;;;2.50;2.30;;;;;;;4.25;96.47;95872.38;7396103;19;20003;-54
2024/04/21 04:19:17;;;;;;;3.05;2.33;;;;;;;5.09;86.45;95879.78;7395713;19;20115;-60
2024/04/21 04:21:43;;;;;;;3.03;2.00;;;;;;;5.61;81.84;95870.63;7395552;19;19998;-63
2024/04/21 04:24:08;;;;;;;2.65;2.00;;;;;;;5.24;85.15;95877.69;7395521;19;20028;-63
2024/04/21 04:26:34;;;;;;;6.78;2.03;;;;;;;5.74;83.84;95879.75;7395849;19;20043;-60
2024/04/21 04:28:59;;;;;;;4.30;2.22;;;;;;;6.67;77.88;95893.41;7395402;19;20375;-56
2024/04/21 04:31:25;;;;;;;1.92;1.83;;;;;;;5.55;84.47;95888.09;7395426;19;20025;-58
2024/04/21 04:33:51;;;;;;;2.08;1.98;;;;;;;5.20;91.26;95883.88;7394134;19;20013;-60
2024/04/21 04:36:17;;;;;;;2.20;2.00;;;;;;;5.05;94.65;95891.16;7395182;19;20017;-55
2024/04/21 04:38:42;;;;;;;2.30;2.00;;;;;;;4.20;97.84;95886.31;7395120;19;19995;-59
2024/04/21 04:41:09;;;;;;;5.68;2.75;;;;;;;4.50;98.24;95884.75;7395023;19;19999;-67
2024/04/21 04:43:34;;;;;;;4.72;2.30;;;;;;;4.51;100.00;95890.75;7394301;19;20014;-64
2024/04/21 04:46:00;;;;;;;7.97;3.28;;;;;;;4.63;100.00;95890.47;7394870;19;20007;-58
2024/04/21 04:48:26;;;;;;;6.32;2.70;;;;;;;4.45;100.00;95896.13;7394925;19;20002;-62
2024/04/21 04:50:51;;;;;;;3.95;2.75;;;;;;;5.13;98.95;95896.13;7395159;19;20082;-62
2024/04/21 04:53:17;;;;;;;5.47;2.85;;;;;;;5.11;100.00;95897.91;7394033;19;20027;-62
2024/04/21 04:55:43;;;;;;;3.97;2.60;;;;;;;5.80;95.15;95889.97;7394667;19;19999;-61
2024/04/21 04:58:09;;;;;;;4.93;2.85;;;;;;;5.62;100.00;95895.66;7394615;19;19999;-58
2024/04/21 05:00:35;;;;;;;3.05;2.85;;;;;;;5.47;99.66;95902.13;7394542;19;20005;-65
2024/04/21 05:03:00;;;;;;;3.03;2.80;;;;;;;5.90;99.67;95893.13;7394612;19;20012;-61
2024/04/21 05:05:26;;;;;;;4.10;2.65;;;;;;;6.15;99.66;95900.22;7394529;19;20014;-55
2024/04/21 05:07:52;;;;;;;4.45;3.00;;;;;;;6.32;98.92;95897.09;7394358;19;20431;-61
2024/04/21 05:10:17;;;;;;;3.65;3.28;;;;;;;6.87;95.48;95900.56;7394698;19;20009;-57
2024/04/21 05:12:48;;;;;;;4.20;3.80;;;;;;;7.00;97.86;95897.53;7393857;19;20469;-60
2024/04/21 05:15:13;;;;;;;3.42;3.13;;;;;;;7.02;98.08;95904.41;7394366;19;20455;-58
2024/04/21 05:17:39;;;;;;;5.03;3.20;;;;;;;7.17;96.10;95895.19;7394479;19;20003;-58
2024/04/21 05:20:05;;;;;;;6.18;3.42;;;;;;;7.51;95.12;95905.31;7396554;19;20482;-59
2024/04/21 05:22:31;;;;;;;4.32;3.78;;;;;;;7.62;88.83;95904.94;7401377;19;20001;-58
2024/04/21 05:24:57;;;;;;;4.38;3.60;;;;;;;7.55;89.98;95907.75;7401321;19;20002;-64
2024/04/21 05:27:22;;;;;;;3.60;3.30;;;;;;;7.68;89.91;95905.53;7401150;19;19990;-65
2024/04/21 05:29:50;;;;;;;4.13;3.63;;;;;;;7.70;89.71;95914.16;7401154;19;19998;-61
2024/04/21 05:32:16;;;;;;;3.70;3.30;;;;;;;7.68;89.94;95913.34;7401158;19;19999;-59
2024/04/21 05:34:42;;;;;;;3.60;3.30;;;;;;;7.76;88.54;95915.69;7398560;19;20048;-63
2024/04/21 05:37:07;;;;;;;3.35;3.08;;;;;;;7.97;86.62;95921.00;7400857;19;20058;-62
2024/04/21 05:39:33;;;;;;;3.75;3.45;;;;;;;8.06;85.12;95915.44;7400932;19;19999;-58
2024/04/21 05:41:59;;;;;;;4.97;2.97;;;;;;;8.05;84.85;95920.72;7400830;19;20006;-62
2024/04/21 05:44:24;;;;;;;3.00;2.72;;;;;;;8.47;83.32;95913.91;7398846;19;20355;-63
2024/04/21 05:46:50;;;;;;;3.70;3.33;;;;;;;8.31;84.96;95917.09;7400990;19;20033;-63
2024/04/21 05:49:16;;;;;;;3.40;2.53;;;;;;;8.41;83.73;95919.34;7400546;19;20429;-62
2024/04/21 05:51:42;;;;;;;4.88;2.95;;;;;;;8.33;84.43;95925.72;7400360;19;20490;-62
2024/04/21 05:54:08;;;;;;;4.35;2.38;;;;;;;8.42;80.75;95916.69;7398523;19;20003;-64
2024/04/21 05:56:33;;;;;;;3.38;2.60;;;;;;;8.56;81.42;95912.72;7400278;19;20015;-54
2024/04/21 05:58:59;;;;;;;2.53;2.33;;;;;;;8.94;79.16;95925.94;7400560;19;19999;-66
2024/04/21 06:01:25;;;;;;;2.85;2.40;;;;;;;9.39;76.22;95931.06;7400091;19;20037;-64
2024/04/21 06:03:50;;;;;;;2.78;1.85;;;;;;;10.15;70.07;95926.88;7399903;19;20006;-58
2024/04/21 06:06:21;;;;;;;1.90;1.80;;;;;;;10.15;69.82;95932.09;7399946;19;20002;-63
2024/04/21 06:08:50;;;;;;;2.47;2.13;;;;;;;10.36;67.60;95937.25;7400019;19;20006;-62
2024/04/21 06:11:16;;;;;;;2.30;2.10;;;;;;;10.31;69.27;95932.25;7399918;19;19999;-61
2024/04/21 06:13:42;;;;;;;3.58;2.00;;;;;;;9.78;66.95;95944.22;7398480;19;19999;-57
2024/04/21 06:16:08;;;;;;;4.32;2.30;;;;;;;11.69;62.35;95938.69;7400172;19;20020;-67
2024/04/21 06:18:33;;;;;;;4.50;1.77;;;;;;;13.18;57.38;95950.75;7399554;19;20020;-64
2024/04/21 06:20:59;;;;;;;2.45;1.65;;;;;;;13.22;57.29;95948.78;7399564;19;19995;-60
2024/04/21 06:23:25;;;;;;;1.85;1.63;;;;;;;12.30;59.33;95941.63;7399458;19;20017;-58
2024/04/21 06:25:50;;;;;;;1.38;1.27;;;;;;;12.12;58.28;95956.56;7399469;19;20006;-60
2024/04/21 06:28:16;;;;;;;2.13;1.92;;;;;;;10.86;62.67;95942.78;7399150;19;20344;-63
2024/04/21 06:30:42;;;;;;;1.52;1.42;;;;;;;11.34;63.07;95948.28;7398903;19;20066;-62
2024/04/21 06:33:08;;;;;;;1.92;1.30;;;;;;;10.53;64.23;95938.25;7398622;19;20422;-54
2024/04/21 06:35:34;;;;;;;2.08;1.50;;;;;;;11.29;61.52;95954.66;7399375;19;20007;-60
2024/04/21 06:37:59;;;;;;;2.45;1.50;;;;;;;11.50;60.98;95953.56;7398851;19;20356;-61
2024/04/21 06:40:25;;;;;;;2.60;1.52;;;;;;;11.93;59.19;95957.53;7398766;19;20021;-67
2024/04/21 06:42:51;;;;;;;1.33;1.17;;;;;;;12.17;59.81;95962.41;7399179;19;20025;-64
2024/04/21 06:45:17;;;;;;;1.50;1.40;;;;;;;12.06;58.32;95967.34;7396483;19;20000;-58
2024/04/21 06:47:43;;;;;;;3.67;1.42;;;;;;;12.56;57.40;95959.47;7398696;19;20416;-64
2024/04/21 06:50:08;;;;;;;2.08;1.52;;;;;;;12.23;55.66;95969.09;7398633;19;20002;-60
2024/04/21 06:52:34;;;;;;;1.48;1.38;;;;;;;12.36;56.12;95964.88;7398478;19;20010;-64
2024/04/21 06:55:00;;;;;;;1.65;1.40;;;;;;;12.13;59.75;95963.47;7396239;19;20021;-60
2024/04/21 06:57:25;;;;;;;1.73;1.60;;;;;;;12.71;55.61;95963.03;7398408;19;19997;-62
2024/04/21 06:59:51;;;;;;;1.98;1.60;;;;;;;13.62;54.53;95972.75;7398627;19;20061;-62
2024/04/21 07:02:17;;;;;;;3.65;1.50;;;;;;;13.64;52.95;95964.78;7398161;19;20483;-60
2024/04/21 07:04:42;;;;;;;1.48;1.33;;;;;;;14.02;52.44;95977.38;7398018;19;20006;-60
2024/04/21 07:07:08;;;;;;;2.33;1.67;;;;;;;15.49;49.88;95972.59;7397928;19;20019;-59
2024/04/21 07:09:39;;;;;;;1.50;1.40;;;;;;;14.46;50.92;95972.09;7397900;19;20058;-59
2024/04/21 07:12:05;;;;;;;3.58;1.55;;;;;;;14.20;51.58;95973.72;7396455;19;19999;-60
2024/04/21 07:14:31;;;;;;;4.05;1.70;;;;;;;12.45;55.60;95976.66;7396012;19;20002;-56
2024/04/21 07:16:57;;;;;;;3.65;1.80;;;;;;;11.96;57.78;95969.59;7398017;19;20484;-59
2024/04/21 07:19:23;;;;;;;2.03;1.50;;;;;;;11.97;59.16;95976.53;7397526;19;20345;-59
2024/04/21 07:21:49;;;;;;;1.88;1.65;;;;;;;11.51;59.22;95972.75;7397521;19;20005;-55
2024/04/21 07:24:15;;;;;;;1.80;1.70;;;;;;;11.24;60.47;95970.59;7397503;19;19990;-60
2024/04/21 07:26:40;;;;;;;2.35;1.98;;;;;;;11.18;61.35;95968.28;7397193;19;20002;-60
2024/04/21 07:29:06;;;;;;;2.65;1.70;;;;;;;10.72;62.44;95967.00;7397136;19;20002;-61
2024/04/21 07:31:32;;;;;;;2.42;2.10;;;;;;;10.10;64.70;95968.03;7397077;19;19994;-58
2024/04/21 07:33:58;;;;;;;2.97;2.08;;;;;;;10.56;63.37;95970.31;7396108;19;20364;-64
2024/04/21 07:36:23;;;;;;;2.55;2.30;;;;;;;10.09;63.73;95959.34;7396974;19;20022;-56
2024/04/21 07:38:53;;;;;;;2.35;1.98;;;;;;;10.23;63.25;95956.13;7397283;19;20033;-59
2024/04/21 07:41:20;;;;;;;3.72;2.22;;;;;;;10.17;63.44;95964.22;7396936;19;20029;-61
2024/04/21 07:43:46;;;;;;;1.90;1.80;;;;;;;9.91;62.83;95960.19;7395015;19;20070;-54
2024/04/21 07:46:12;;;;;;;2.00;1.90;;;;;;;9.89;63.81;95960.25;7396651;19;20484;-62
2024/04/21 07:48:37;;;;;;;2.15;1.95;;;;;;;9.55;63.48;95946.94;7396535;19;20459;-54
2024/04/21 07:51:03;;;;;;;1.85;1.75;;;;;;;10.16;63.61;95952.09;7396540;19;20009;-57
2024/04/21 07:53:29;;;;;;;3.47;1.70;;;;;;;10.08;64.37;95959.41;7395733;19;19999;-60
2024/04/21 07:55:55;;;;;;;2.38;1.83;;;;;;;9.67;64.77;95961.22;7396297;19;20078;-58
2024/04/21 07:58:21;;;;;;;2.05;1.90;;;;;;;9.09;63.97;95967.97;7396241;19;20010;-53
2024/04/21 08:00:46;;;;;;;2.30;1.65;;;;;;;9.66;65.31;95962.09;7396653;19;19999;-57
2024/04/21 08:03:12;;;;;;;2.75;1.85;;;;;;;9.81;63.08;95962.38;7396198;19;20354;-63
2024/04/21 08:05:38;;;;;;;3.55;1.90;;;;;;;10.11;64.61;95965.38;7396514;19;20014;-61
2024/04/21 08:08:04;;;;;;;3.13;1.73;;;;;;;10.28;62.38;95963.75;7396388;19;20070;-62
2024/04/21 08:10:29;;;;;;;1.70;1.60;;;;;;;10.13;61.86;95970.53;7395870;19;20001;-66
2024/04/21 08:12:56;;;;;;;1.65;1.50;;;;;;;10.60;62.58;95971.03;7395482;19;19995;-60
2024/04/21 08:15:21;;;;;;;1.60;1.50;;;;;;;10.75;61.44;95966.84;7395918;19;19998;-58
2024/04/21 08:17:47;;;;;;;1.77;1.67;;;;;;;10.99;62.36;95969.22;7396077;19;20010;-63
2024/04/21 08:20:15;;;;;;;2.80;1.60;;;;;;;11.08;58.29;95979.19;7395603;19;19998;-61
2024/04/21 08:22:41;;;;;;;3.50;1.45;;;;;;;11.19;56.43;95983.06;7395497;19;20058;-60
2024/04/21 08:25:07;;;;;;;1.65;1.55;;;;;;;11.05;58.37;95981.13;7395484;19;19995;-60
2024/04/21 08:27:33;;;;;;;2.38;1.80;;;;;;;10.66;59.42;95977.75;7395350;19;20006;-60
2024/04/21 08:29:58;;;;;;;1.65;1.55;;;;;;;11.61;59.53;95976.59;7395734;19;20003;-62
2024/04/21 08:32:24;;;;;;;3.38;1.50;;;;;;;11.51;56.04;95985.84;7395721;19;20489;-61
2024/04/21 08:34:50;;;;;;;1.75;1.27;;;;;;;12.04;57.80;95975.28;7393733;19;20537;-58
2024/04/21 08:37:16;;;;;;;1.65;1.50;;;;;;;12.33;57.33;95988.66;7395261;19;20479;-57
2024/04/21 08:39:41;;;;;;;2.55;1.63;;;;;;;12.54;56.53;95984.94;7395040;19;20026;-60
2024/04/21 08:42:09;;;;;;;1.70;1.52;;;;;;;12.22;56.83;95988.38;7395079;19;20006;-62
2024/04/21 08:44:35;;;;;;;1.70;1.60;;;;;;;12.55;56.79;95987.47;7393519;19;20346;-63
2024/04/21 08:47:03;;;;;;;5.32;1.70;;;;;;;11.24;59.52;95970.59;7394878;19;20007;-56
2024/04/21 08:49:29;;;;;;;3.53;1.65;;;;;;;12.55;58.87;95966.47;7394691;19;19995;-60
2024/04/21 08:51:59;;;;;;;3.55;1.80;;;;;;;12.18;58.25;95965.88;7394270;19;20471;-57
2024/04/21 08:54:25;;;;;;;2.03;1.83;;;;;;;11.46;61.95;95969.50;7393787;19;20078;-54
2024/04/21 08:56:52;;;;;;;1.80;1.70;;;;;;;11.42;61.25;95967.97;7403898;19;20073;-62
2024/04/21 08:59:22;;;;;;;2.60;2.20;;;;;;;10.52;63.42;95960.94;7401160;19;20472;-63
2024/04/21 09:01:54;;;;;;;3.25;2.20;;;;;;;10.64;63.28;95966.50;7401336;19;20007;-60
2024/04/21 09:04:20;;;;;;;2.42;2.22;;;;;;;9.99;64.58;95948.47;7397076;19;20837;-63
2024/04/21 09:06:50;;;;;;;2.30;1.92;;;;;;;11.21;62.99;95953.28;7400017;19;20015;-61
2024/04/21 09:09:18;;;;;;;2.72;2.22;;;;;;;11.37;63.77;95953.34;7401872;19;20459;-57
2024/04/21 09:11:44;;;;;;;2.83;2.10;;;;;;;11.42;64.10;95960.13;7401740;19;20455;-60
2024/04/21 09:14:11;;;;;;;2.70;2.50;;;;;;;11.71;63.29;95960.41;7401692;19;20521;-61
2024/04/21 09:16:37;;;;;;;12.90;2.92;;;;;;;11.60;63.12;95964.44;7402819;19;20054;-62
2024/04/21 09:19:03;;;;;;;13.35;2.70;;;;;;;11.47;62.72;95968.63;7401300;19;20006;-57
2024/04/21 09:21:30;;;;;;;2.47;2.28;;;;;;;10.35;65.75;95956.44;7401444;19;19995;-60
2024/04/21 09:23:56;;;;;;;2.67;2.47;;;;;;;9.97;68.17;95959.91;7399968;19;20006;-61
2024/04/21 09:26:21;;;;;;;2.42;2.22;;;;;;;10.67;68.59;95955.91;7401148;19;19994;-57
2024/04/21 09:28:47;;;;;;;3.50;2.40;;;;;;;10.83;68.38;95954.25;7401252;19;20467;-59
2024/04/21 09:31:14;;;;;;;7.18;3.67;;;;;;;9.95;70.65;95946.91;7403424;19;20032;-54
2024/04/21 09:33:40;;;;;;;3.63;3.28;;;;;;;9.47;74.05;95952.47;7400956;19;20006;-63
2024/04/21 09:36:06;;;;;;;4.15;3.75;;;;;;;9.39;74.23;95949.31;7400838;19;19999;-63
2024/04/21 09:38:34;;;;;;;5.35;4.38;;;;;;;9.58;75.24;95946.78;7400930;19;20025;-59
2024/04/21 09:41:02;;;;;;;5.57;3.83;;;;;;;9.11;76.21;95953.09;7400855;19;20025;-60
2024/04/21 09:43:28;;;;;;;4.40;3.80;;;;;;;9.12;76.40;95956.56;7399520;19;20070;-60
2024/04/21 09:45:55;;;;;;;4.00;3.60;;;;;;;9.58;74.55;95954.59;7402693;19;20010;-63
2024/04/21 09:48:22;;;;;;;3.60;3.30;;;;;;;10.66;70.50;95954.22;7400658;19;20007;-60
2024/04/21 09:50:49;;;;;;;3.30;3.00;;;;;;;10.23;70.78;95948.28;7400757;19;20006;-61
2024/04/21 09:53:17;;;;;;;3.25;2.72;;;;;;;10.67;70.03;95953.28;7400405;19;20066;-59
2024/04/21 09:55:47;;;;;;;5.65;3.00;;;;;;;11.07;66.68;95960.97;7400335;19;20072;-60
2024/04/21 09:58:15;;;;;;;4.45;2.72;;;;;;;10.07;70.94;95953.34;7400236;19;20025;-62
2024/04/21 10:00:44;;;;;;;2.72;2.50;;;;;;;10.16;70.31;95948.63;7401758;19;19999;-53
2024/04/21 10:03:10;;;;;;;3.88;2.63;;;;;;;10.32;71.16;95933.91;7399939;19;20032;-58
2024/04/21 10:05:38;;;;;;;3.75;3.20;;;;;;;10.61;68.60;95957.03;7399077;19;20515;-59
2024/04/21 10:08:06;;;;;;;7.15;3.60;;;;;;;10.67;68.21;95954.13;7400179;19;19998;-62
2024/04/21 10:10:35;;;;;;;4.78;3.28;;;;;;;11.98;65.72;95958.09;7400091;19;20001;-60
2024/04/21 10:13:02;;;;;;;5.97;2.92;;;;;;;11.62;64.47;95962.56;7399842;19;20010;-56
2024/04/21 10:15:29;;;;;;;5.22;2.90;;;;;;;10.69;67.78;95944.44;7400736;19;19999;-58
2024/04/21 10:18:00;;;;;;;4.05;3.42;;;;;;;10.91;67.85;95946.03;7399634;19;20015;-57
2024/04/21 10:20:37;;;;;;;4.32;3.40;;;;;;;12.15;63.17;95956.41;7399558;19;20016;-62
2024/04/21 10:23:06;;;;;;;4.15;2.83;;;;;;;10.10;69.81;95945.38;7399177;19;20018;-57
2024/04/21 10:25:36;;;;;;;8.25;4.15;;;;;;;10.64;69.35;95949.06;7399414;19;20460;-61
2024/04/21 10:28:03;;;;;;;6.72;4.07;;;;;;;11.39;67.72;95953.28;7399331;19;20002;-62
2024/04/21 10:30:30;;;;;;;5.80;3.60;;;;;;;12.35;66.38;95938.75;7402048;19;20472;-60
2024/04/21 10:32:59;;;;;;;3.40;3.10;;;;;;;13.67;62.79;95956.72;7398955;19;20006;-65
2024/04/21 10:35:34;;;;;;;4.22;3.20;;;;;;;11.67;63.81;95953.63;7399025;19;20006;-61
2024/04/21 10:38:04;;;;;;;3.60;3.15;;;;;;;10.82;67.67;95936.84;7398952;19;20003;-54
2024/04/21 10:40:30;;;;;;;4.80;3.60;;;;;;;12.07;64.59;95942.88;7398815;19;20471;-60
2024/04/21 10:42:56;;;;;;;6.65;3.03;;;;;;;12.56;63.95;95925.38;7398416;19;20006;-60
2024/04/21 10:45:22;;;;;;;4.85;2.92;;;;;;;11.09;67.29;95920.72;7397740;19;20006;-57
2024/04/21 10:47:48;;;;;;;4.90;2.85;;;;;;;11.56;67.78;95918.34;7398545;19;20018;-54
2024/04/21 10:50:15;;;;;;;3.85;2.80;;;;;;;12.70;62.99;95921.97;7398535;19;19998;-58
2024/04/21 10:52:41;;;;;;;4.32;2.70;;;;;;;12.69;63.54;95920.28;7398243;19;20003;-57
2024/04/21 10:55:06;;;;;;;2.90;2.60;;;;;;;10.86;67.24;95916.59;7398828;19;20002;-53
2024/04/21 10:57:35;;;;;;;3.17;2.83;;;;;;;11.29;67.35;95921.47;7398220;19;20470;-57
2024/04/21 11:00:01;;;;;;;3.38;2.85;;;;;;;11.53;67.12;95920.31;7401009;19;20002;-60
2024/04/21 11:02:27;;;;;;;4.57;2.50;;;;;;;11.52;65.44;95921.19;7398451;19;20462;-60
2024/04/21 11:04:55;;;;;;;4.43;2.60;;;;;;;11.32;66.91;95923.94;7396099;19;20512;-60
2024/04/21 11:07:21;;;;;;;3.97;2.55;;;;;;;11.65;66.12;95922.25;7397862;19;20041;-57
2024/04/21 11:09:47;;;;;;;2.40;2.20;;;;;;;10.99;67.51;95917.69;7397881;19;20022;-62
2024/04/21 11:12:16;;;;;;;6.57;2.75;;;;;;;11.70;65.16;95915.03;7398090;19;20003;-55
2024/04/21 11:14:43;;;;;;;3.28;2.40;;;;;;;11.95;63.42;95905.84;7399264;19;20018;-59
2024/04/21 11:17:09;;;;;;;2.95;2.42;;;;;;;12.41;61.45;95909.56;7396185;19;20002;-56
2024/04/21 11:19:35;;;;;;;2.22;1.98;;;;;;;12.18;60.13;95916.03;7396593;19;20006;-55
2024/04/21 11:22:01;;;;;;;3.95;2.05;;;;;;;13.50;58.28;95908.66;7400553;19;20027;-60
2024/04/21 11:24:27;;;;;;;2.85;2.20;;;;;;;13.46;56.80;95924.66;7399163;19;20007;-63
2024/04/21 11:26:53;;;;;;;4.22;1.80;;;;;;;14.32;56.52;95901.06;7400225;19;20447;-61
2024/04/21 11:29:18;;;;;;;7.15;2.20;;;;;;;14.39;56.40;95905.03;7396788;19;19995;-56
2024/04/21 11:31:46;;;;;;;3.00;1.80;;;;;;;13.45;59.39;95901.94;7396547;19;20010;-57
2024/04/21 11:34:13;;;;;;;2.88;2.38;;;;;;;11.11;61.67;95908.38;7399980;19;20456;-60
2024/04/21 11:36:40;;;;;;;3.90;2.05;;;;;;;11.10;62.76;95895.38;7396981;19;20002;-61
2024/04/21 11:39:06;;;;;;;2.25;2.08;;;;;;;12.55;60.23;95886.97;7396856;19;19999;-65
2024/04/21 11:41:32;;;;;;;2.63;2.10;;;;;;;13.12;56.70;95891.56;7399354;19;20005;-55
2024/04/21 11:43:58;;;;;;;3.33;2.50;;;;;;;11.38;61.09;95889.56;7398126;19;20003;-61
2024/04/21 11:46:25;;;;;;;2.20;2.00;;;;;;;12.30;59.53;95877.81;7396791;19;20018;-63
2024/04/21 11:48:56;;;;;;;4.63;2.10;;;;;;;13.34;57.10;95881.56;7396567;19;20010;-60
2024/04/21 11:51:22;;;;;;;5.63;1.90;;;;;;;13.76;56.20;95877.28;7396528;19;20058;-59
2024/04/21 11:53:47;;;;;;;2.63;1.90;;;;;;;12.93;58.04;95869.94;7399506;19;19999;-57
2024/04/21 11:56:13;;;;;;;4.15;2.15;;;;;;;11.65;60.06;95871.66;7396885;19;20003;-63
2024/04/21 11:58:39;;;;;;;2.83;1.92;;;;;;;12.22;59.37;95862.53;7396701;19;20475;-59
2024/04/21 12:01:05;;;;;;;1.77;1.63;;;;;;;12.41;56.72;95861.50;7396674;19;20455;-57
2024/04/21 12:03:32;;;;;;;2.28;1.67;;;;;;;13.45;57.06;95859.91;7396193;19;20002;-53
2024/04/21 12:05:57;;;;;;;1.50;1.40;;;;;;;13.08;55.36;95863.78;7396157;19;20006;-61
2024/04/21 12:08:23;;;;;;;1.60;1.50;;;;;;;13.00;57.86;95842.38;7396412;19;19999;-66
2024/04/21 12:10:49;;;;;;;2.33;1.88;;;;;;;14.64;55.91;95862.19;7395979;19;20373;-57
2024/04/21 12:13:15;;;;;;;1.70;1.60;;;;;;;13.25;58.26;95852.28;7396281;19;20024;-60